x

East Gulf - 208 Mn West Of Naples, Fl (42003) Wave Buoy

3:50pm - Mon 25th May 2015 All times are EDT. -4 hours from GMT.

  • Sig Wave height 3.6ft
  • Swell Direction
  • Peak Period 6s
  • Average Period 5s
  • Wind
    16mph, 18mph gusts
  • Sea Temp 82°f
  • Air Temp 82°f
  • Sea Pressure 1018.6mb
  • East Gulf - 208 Mn West Of Naples, Fl
  • East Gulf - 208 Mn West Of Naples, Fl

More Historic Weather Station data

Upgrade to MSW Pro to gain access to the past 30 days of data for over 8000 Wavebouys and Weather Stations around the globe.

Join Pro

Comparision Forecast

View Surf forecast
   
Mon 05/25 3:50pm 3.5ft 6s 5s 16 18 mph 1018.6mb 82f 82f
2:50pm 3.5ft 8s 5s 16 18 mph 1018.9mb 82f 82f
1:50pm 3.5ft 6s 5s 13 18 mph 1019.4mb 82f 82f
12:50pm 3.5ft 5s 5s 13 16 mph 1019.7mb 82f 82f
11:50am 3.5ft 5s 5s 13 16 mph 1019.6mb 82f 82f
10:50am 3.5ft 6s 4s 16 18 mph 1019.4mb 82f 82f
9:50am 3.5ft 5s 4s 16 20 mph 1019.2mb 82f 82f
8:50am 3.5ft 5s 5s 16 20 mph 1018.9mb 82f 82f
7:50am 3.5ft 5s 4s 18 20 mph 1018.3mb 82f 81f
6:50am 3.5ft 6s 4s 18 20 mph 1017.9mb 82f 82f
5:50am 3.5ft 5s 4s 18 20 mph 1017.8mb 82f 81f
4:50am 3.5ft 5s 4s 16 20 mph 1017.8mb 82f 81f
3:50am 3.5ft 5s 5s 16 18 mph 1018mb 82f 81f
2:50am 3.5ft 6s 5s 16 18 mph 1018.4mb 82f 81f
1:50am 3.5ft 5s 5s 16 18 mph 1018.8mb 82f 81f
12:50am 3.5ft 6s 5s 13 16 mph 1019.4mb 82f 81f
Sun 05/24 11:50pm 4ft 6s 5s 13 18 mph 1019.5mb 82f 81f
10:50pm 4.5ft 6s 5s 16 18 mph 1019.2mb 82f 81f
9:50pm 4.5ft 6s 5s 16 18 mph 1018.5mb 82f 82f
8:50pm 4.5ft 6s 5s 16 20 mph 1018.3mb 82f 81f
7:50pm 4.5ft 6s 5s 18 20 mph 1017.8mb 82f 82f
6:50pm 4.5ft 6s 5s 18 20 mph 1017.2mb 82f 81f
5:50pm 4.5ft 7s 5s 20 22 mph 1017.4mb 82f 81f
4:50pm 4ft 6s 5s 18 25 mph 1018.2mb 82f 81f
3:50pm 4.5ft 6s 5s 16 18 mph 1018.9mb 82f 82f
2:50pm 3.5ft 6s 5s 16 18 mph 1019.6mb 82f 82f
1:50pm 3.5ft 6s 4s 18 20 mph 1019.8mb 82f 82f
12:50pm 3.5ft 5s 4s 16 18 mph 1020mb 82f 82f
11:50am 3ft 5s 4s 16 18 mph 1020mb 82f 82f
10:50am 3ft 5s 4s 16 18 mph 1019.8mb 82f 82f
9:50am 2.5ft 5s 4s 18 22 mph 1019.6mb 82f 82f
8:50am 2.5ft 5s 4s 16 18 mph 1019.5mb 82f 82f
7:50am 2.5ft 5s 4s 11 16 mph 1019.7mb 82f 81f
6:50am 3ft 6s 4s 16 20 mph 1019.2mb 82f 80f
5:50am 3.5ft 5s 4s 16 18 mph 1018.9mb 82f 81f
4:50am 3ft 6s 4s 13 18 mph 1018.8mb 82f 82f
3:50am 3ft 4s 4s 16 18 mph 1018.9mb 82f 82f
2:50am 2.5ft 4s 4s 18 20 mph 1019mb 82f 82f
1:50am 2.5ft 4s 3s 18 20 mph 1019.3mb 82f 82f
12:50am 2ft 4s 3s 18 20 mph 1020mb 82f 81f
Sat 05/23 11:50pm 2ft 3s 3s 16 18 mph 1020.3mb 82f 82f
10:50pm 2ft 3s 3s 16 18 mph 1020mb 82f 82f
9:50pm 1.6ft 3s 3s 16 18 mph 1019.2mb 83f 81f
8:50pm 1.6ft 3s 3s 16 18 mph 1019.4mb 83f 82f
7:50pm 1.6ft 3s 3s 13 16 mph 1019.4mb 83f 82f
6:50pm 1.3ft 3s 3s 13
mph
1019.6mb 83f 82f
5:50pm 1.3ft 3s 3s 11 13 mph 1020mb 83f 82f
4:50pm 1.3ft 3s 3s 11 13 mph 1020.3mb 83f 82f
3:50pm 1.6ft 3s 3s 11 13 mph 1020.8mb 83f 82f
2:50pm 1.3ft 3s 3s 11 13 mph 1021.6mb 83f 82f
1:50pm 1.6ft 3s 3s 11 13 mph 1021.6mb 82f 81f
12:50pm 1.3ft 3s 3s 11 13 mph 1021.9mb 82f 81f
11:50am 1.3ft 3s 3s 11 13 mph 1022.1mb 82f 81f
10:50am 1.3ft 3s 3s 11 13 mph 1022.2mb 82f 81f
9:50am 1.3ft 3s 3s 11 13 mph 1021.9mb 82f 81f
8:50am 1.3ft 3s 3s 13 16 mph 1021.5mb 82f 81f
7:50am 1.3ft 3s 3s 11 13 mph 1021mb 82f 81f
6:50am 1ft 5s 3s 13 16 mph 1020.3mb 82f 81f
5:50am 1ft 2s 3s 11 13 mph 1019.7mb 82f 81f
4:50am 1ft 2s 3s 11 13 mph 1019.1mb 82f 81f
3:50am 1ft 5s 3s 11 16 mph 1019mb 82f 80f
2:50am 1ft 2s 3s 11 13 mph 1019.1mb 82f 81f
1:50am 0.7ft  -  4s 9 11 mph 1019.9mb 83f 81f
12:50am 0.7ft  -  4s 11
mph
1020.3mb 83f 81f
Fri 05/22 11:50pm 0.7ft  -  5s 11
mph
1020.7mb 83f 81f
10:50pm 0.7ft  -  5s 11
mph
1020.6mb 83f 81f
9:50pm 0.7ft  -  5s 9 11 mph 1020.3mb 83f 81f
8:50pm 0.7ft  -  5s 9
mph
1020.1mb 84f 81f
7:50pm 1ft 7s 5s 4 7 mph 1019.3mb 84f 82f
6:50pm 0.7ft  -  5s 7 9 mph 1018.9mb 84f 82f
5:50pm 0.7ft  -  5s 7 9 mph 1018.9mb 84f 82f
4:50pm 0.7ft  -  5s 7 9 mph 1019.1mb 85f 82f
3:50pm 0.7ft  -  5s 7 9 mph 1019.5mb 85f 82f
2:50pm 0.7ft  -  5s 7 9 mph 1019.7mb 85f 81f
1:50pm 0.7ft  -  5s 7 9 mph 1019.8mb 85f 81f
12:50pm 0.7ft  -  5s 4 7 mph 1020mb 85f 81f
11:50am 0.7ft  -  5s 2 4 mph 1020mb 85f 81f
10:50am 0.7ft  -  5s 2 4 mph 1019.9mb 83f 81f
9:50am 0.7ft  -  4s 4
mph
1019.6mb 83f 81f
8:50am 0.7ft  -  4s 2 4 mph 1018.8mb 82f 81f
7:50am 1ft 8s 4s  -  2 mph 1018.1mb 83f 82f
6:50am 1ft 8s 4s  -  2 mph 1017.6mb 82f 80f
5:50am 1ft 4s 4s 2
mph
1016.7mb 82f 80f
4:50am 1ft 5s 4s 2
mph
1016.5mb 82f 80f
3:50am 1ft 4s 4s 2
mph
1016.6mb 82f 80f
2:50am 1ft 4s 4s  -  2 mph 1017mb 82f 80f
1:50am 1ft 8s 5s  -  mph 1017.5mb 82f 80f
12:50am 1ft 4s 5s 2
mph
1018.2mb 82f 81f
Thu 05/21 11:50pm 1ft 7s 5s 2
mph
1018.2mb 82f 81f
10:50pm 1ft 8s 5s  -  mph 1017.9mb 83f 81f
9:50pm 1ft 7s 5s 2 4 mph 1017.1mb 84f 81f
8:50pm 1ft 8s 5s 2
mph
1016.5mb 85f 81f